sensor_id;sensor_type;location;lat;lon;timestamp;P1;durP1;ratioP1;P2;durP2;ratioP2
72379;SDS011;60354;47.798;12.472;2023-12-20T00:02:14;4.43;;;2.60;;
72379;SDS011;60354;47.798;12.472;2023-12-20T00:04:39;6.97;;;3.10;;
72379;SDS011;60354;47.798;12.472;2023-12-20T00:07:05;6.47;;;2.67;;
72379;SDS011;60354;47.798;12.472;2023-12-20T00:09:30;5.43;;;2.85;;
72379;SDS011;60354;47.798;12.472;2023-12-20T00:11:56;6.00;;;2.88;;
72379;SDS011;60354;47.798;12.472;2023-12-20T00:14:22;5.97;;;3.20;;
72379;SDS011;60354;47.798;12.472;2023-12-20T00:16:47;6.93;;;3.72;;
72379;SDS011;60354;47.798;12.472;2023-12-20T00:19:13;7.30;;;2.80;;
72379;SDS011;60354;47.798;12.472;2023-12-20T00:21:38;4.93;;;2.60;;
72379;SDS011;60354;47.798;12.472;2023-12-20T00:24:04;5.20;;;2.88;;
72379;SDS011;60354;47.798;12.472;2023-12-20T00:26:30;4.20;;;2.78;;
72379;SDS011;60354;47.798;12.472;2023-12-20T00:28:55;3.88;;;2.40;;
72379;SDS011;60354;47.798;12.472;2023-12-20T00:31:20;6.68;;;2.53;;
72379;SDS011;60354;47.798;12.472;2023-12-20T00:33:46;4.43;;;2.20;;
72379;SDS011;60354;47.798;12.472;2023-12-20T00:36:12;4.50;;;2.30;;
72379;SDS011;60354;47.798;12.472;2023-12-20T00:38:37;4.30;;;2.42;;
72379;SDS011;60354;47.798;12.472;2023-12-20T00:41:03;3.10;;;1.98;;
72379;SDS011;60354;47.798;12.472;2023-12-20T00:43:28;3.60;;;2.30;;
72379;SDS011;60354;47.798;12.472;2023-12-20T00:45:54;3.80;;;2.10;;
72379;SDS011;60354;47.798;12.472;2023-12-20T00:48:20;4.47;;;2.20;;
72379;SDS011;60354;47.798;12.472;2023-12-20T00:50:46;3.70;;;2.20;;
72379;SDS011;60354;47.798;12.472;2023-12-20T00:53:12;3.90;;;2.05;;
72379;SDS011;60354;47.798;12.472;2023-12-20T00:55:37;3.55;;;2.20;;
72379;SDS011;60354;47.798;12.472;2023-12-20T00:58:03;3.28;;;1.92;;
72379;SDS011;60354;47.798;12.472;2023-12-20T01:00:28;5.43;;;2.20;;
72379;SDS011;60354;47.798;12.472;2023-12-20T01:02:54;4.68;;;2.40;;
72379;SDS011;60354;47.798;12.472;2023-12-20T01:05:19;4.63;;;2.20;;
72379;SDS011;60354;47.798;12.472;2023-12-20T01:07:48;3.58;;;2.28;;
72379;SDS011;60354;47.798;12.472;2023-12-20T01:10:14;3.20;;;2.22;;
72379;SDS011;60354;47.798;12.472;2023-12-20T01:12:40;3.05;;;1.90;;
72379;SDS011;60354;47.798;12.472;2023-12-20T01:15:05;3.30;;;1.90;;
72379;SDS011;60354;47.798;12.472;2023-12-20T01:17:31;2.80;;;1.85;;
72379;SDS011;60354;47.798;12.472;2023-12-20T01:19:56;3.33;;;2.10;;
72379;SDS011;60354;47.798;12.472;2023-12-20T01:22:23;3.20;;;1.83;;
72379;SDS011;60354;47.798;12.472;2023-12-20T01:24:48;2.45;;;1.75;;
72379;SDS011;60354;47.798;12.472;2023-12-20T01:27:14;3.47;;;1.67;;
72379;SDS011;60354;47.798;12.472;2023-12-20T01:29:39;4.50;;;2.15;;
72379;SDS011;60354;47.798;12.472;2023-12-20T01:32:05;3.67;;;1.88;;
72379;SDS011;60354;47.798;12.472;2023-12-20T01:34:31;3.03;;;1.90;;
72379;SDS011;60354;47.798;12.472;2023-12-20T01:36:56;3.90;;;2.08;;
72379;SDS011;60354;47.798;12.472;2023-12-20T01:39:22;3.40;;;1.95;;
72379;SDS011;60354;47.798;12.472;2023-12-20T01:41:47;4.30;;;2.00;;
72379;SDS011;60354;47.798;12.472;2023-12-20T01:44:13;5.30;;;1.73;;
72379;SDS011;60354;47.798;12.472;2023-12-20T01:46:38;3.30;;;1.75;;
72379;SDS011;60354;47.798;12.472;2023-12-20T01:49:04;3.67;;;1.70;;
72379;SDS011;60354;47.798;12.472;2023-12-20T01:51:29;3.00;;;1.90;;
72379;SDS011;60354;47.798;12.472;2023-12-20T01:53:56;4.07;;;1.80;;
72379;SDS011;60354;47.798;12.472;2023-12-20T01:56:23;2.95;;;1.80;;
72379;SDS011;60354;47.798;12.472;2023-12-20T01:58:49;5.20;;;1.92;;
72379;SDS011;60354;47.798;12.472;2023-12-20T02:01:15;5.03;;;1.90;;
72379;SDS011;60354;47.798;12.472;2023-12-20T02:03:41;3.45;;;1.80;;
72379;SDS011;60354;47.798;12.472;2023-12-20T02:06:07;3.33;;;1.85;;
72379;SDS011;60354;47.798;12.472;2023-12-20T02:08:34;2.92;;;1.73;;
72379;SDS011;60354;47.798;12.472;2023-12-20T02:11:00;3.22;;;1.88;;
72379;SDS011;60354;47.798;12.472;2023-12-20T02:13:26;2.97;;;1.67;;
72379;SDS011;60354;47.798;12.472;2023-12-20T02:15:52;3.42;;;1.70;;
72379;SDS011;60354;47.798;12.472;2023-12-20T02:18:18;3.00;;;1.80;;
72379;SDS011;60354;47.798;12.472;2023-12-20T02:20:44;3.40;;;1.90;;
72379;SDS011;60354;47.798;12.472;2023-12-20T02:23:09;3.13;;;1.83;;
72379;SDS011;60354;47.798;12.472;2023-12-20T02:25:35;2.83;;;1.90;;
72379;SDS011;60354;47.798;12.472;2023-12-20T02:28:00;2.30;;;1.65;;
72379;SDS011;60354;47.798;12.472;2023-12-20T02:30:27;3.40;;;2.00;;
72379;SDS011;60354;47.798;12.472;2023-12-20T02:32:52;3.30;;;1.90;;
72379;SDS011;60354;47.798;12.472;2023-12-20T02:35:19;3.03;;;2.10;;
72379;SDS011;60354;47.798;12.472;2023-12-20T02:37:44;3.40;;;1.90;;
72379;SDS011;60354;47.798;12.472;2023-12-20T02:40:10;3.42;;;1.85;;
72379;SDS011;60354;47.798;12.472;2023-12-20T02:42:35;3.20;;;2.00;;
72379;SDS011;60354;47.798;12.472;2023-12-20T02:45:01;3.55;;;2.17;;
72379;SDS011;60354;47.798;12.472;2023-12-20T02:47:27;3.33;;;1.80;;
72379;SDS011;60354;47.798;12.472;2023-12-20T02:49:52;3.63;;;2.05;;
72379;SDS011;60354;47.798;12.472;2023-12-20T02:52:18;3.53;;;1.80;;
72379;SDS011;60354;47.798;12.472;2023-12-20T02:54:43;3.72;;;2.00;;
72379;SDS011;60354;47.798;12.472;2023-12-20T02:57:09;2.78;;;1.88;;
72379;SDS011;60354;47.798;12.472;2023-12-20T02:59:34;4.35;;;2.05;;
72379;SDS011;60354;47.798;12.472;2023-12-20T03:02:00;3.53;;;2.00;;
72379;SDS011;60354;47.798;12.472;2023-12-20T03:04:25;3.95;;;2.10;;
72379;SDS011;60354;47.798;12.472;2023-12-20T03:06:51;2.97;;;1.75;;
72379;SDS011;60354;47.798;12.472;2023-12-20T03:09:16;3.47;;;1.80;;
72379;SDS011;60354;47.798;12.472;2023-12-20T03:11:42;3.80;;;2.08;;
72379;SDS011;60354;47.798;12.472;2023-12-20T03:14:07;2.80;;;1.75;;
72379;SDS011;60354;47.798;12.472;2023-12-20T03:16:33;4.30;;;2.17;;
72379;SDS011;60354;47.798;12.472;2023-12-20T03:18:58;3.47;;;1.98;;
72379;SDS011;60354;47.798;12.472;2023-12-20T03:21:24;3.25;;;1.90;;
72379;SDS011;60354;47.798;12.472;2023-12-20T03:23:49;3.85;;;2.20;;
72379;SDS011;60354;47.798;12.472;2023-12-20T03:26:15;3.25;;;2.08;;
72379;SDS011;60354;47.798;12.472;2023-12-20T03:28:40;3.55;;;2.00;;
72379;SDS011;60354;47.798;12.472;2023-12-20T03:31:06;3.50;;;1.90;;
72379;SDS011;60354;47.798;12.472;2023-12-20T03:33:31;2.60;;;1.80;;
72379;SDS011;60354;47.798;12.472;2023-12-20T03:35:57;3.30;;;1.85;;
72379;SDS011;60354;47.798;12.472;2023-12-20T03:38:22;2.60;;;1.83;;
72379;SDS011;60354;47.798;12.472;2023-12-20T03:40:49;2.40;;;1.65;;
72379;SDS011;60354;47.798;12.472;2023-12-20T03:43:15;3.60;;;1.90;;
72379;SDS011;60354;47.798;12.472;2023-12-20T03:45:41;3.40;;;1.80;;
72379;SDS011;60354;47.798;12.472;2023-12-20T03:48:07;6.07;;;2.30;;
72379;SDS011;60354;47.798;12.472;2023-12-20T03:50:33;5.55;;;2.28;;
72379;SDS011;60354;47.798;12.472;2023-12-20T03:52:59;4.25;;;1.70;;
72379;SDS011;60354;47.798;12.472;2023-12-20T03:55:25;2.05;;;1.50;;
72379;SDS011;60354;47.798;12.472;2023-12-20T03:57:50;4.10;;;1.73;;
72379;SDS011;60354;47.798;12.472;2023-12-20T04:00:16;2.83;;;1.63;;
72379;SDS011;60354;47.798;12.472;2023-12-20T04:02:42;2.30;;;1.55;;
72379;SDS011;60354;47.798;12.472;2023-12-20T04:05:08;3.00;;;1.75;;
72379;SDS011;60354;47.798;12.472;2023-12-20T04:07:35;2.58;;;1.60;;
72379;SDS011;60354;47.798;12.472;2023-12-20T04:10:01;2.90;;;1.48;;
72379;SDS011;60354;47.798;12.472;2023-12-20T04:12:28;2.90;;;1.60;;
72379;SDS011;60354;47.798;12.472;2023-12-20T04:14:53;3.00;;;1.70;;
72379;SDS011;60354;47.798;12.472;2023-12-20T04:17:19;2.45;;;1.65;;
72379;SDS011;60354;47.798;12.472;2023-12-20T04:19:45;2.70;;;1.52;;
72379;SDS011;60354;47.798;12.472;2023-12-20T04:22:11;3.03;;;1.60;;
72379;SDS011;60354;47.798;12.472;2023-12-20T04:24:36;3.60;;;1.63;;
72379;SDS011;60354;47.798;12.472;2023-12-20T04:27:02;4.00;;;1.98;;
72379;SDS011;60354;47.798;12.472;2023-12-20T04:29:27;3.90;;;2.03;;
72379;SDS011;60354;47.798;12.472;2023-12-20T04:31:53;3.53;;;1.95;;
72379;SDS011;60354;47.798;12.472;2023-12-20T04:34:19;4.63;;;2.13;;
72379;SDS011;60354;47.798;12.472;2023-12-20T04:36:44;4.10;;;2.10;;
72379;SDS011;60354;47.798;12.472;2023-12-20T04:39:11;2.90;;;1.80;;
72379;SDS011;60354;47.798;12.472;2023-12-20T04:41:38;3.25;;;1.65;;
72379;SDS011;60354;47.798;12.472;2023-12-20T04:44:04;1.92;;;1.27;;
72379;SDS011;60354;47.798;12.472;2023-12-20T04:46:29;2.53;;;1.50;;
72379;SDS011;60354;47.798;12.472;2023-12-20T04:48:55;3.38;;;1.58;;
72379;SDS011;60354;47.798;12.472;2023-12-20T04:51:20;2.25;;;1.17;;
72379;SDS011;60354;47.798;12.472;2023-12-20T04:53:46;1.63;;;1.00;;
72379;SDS011;60354;47.798;12.472;2023-12-20T04:56:11;1.25;;;0.95;;
72379;SDS011;60354;47.798;12.472;2023-12-20T04:58:37;1.63;;;1.00;;
72379;SDS011;60354;47.798;12.472;2023-12-20T05:01:03;1.48;;;0.90;;
72379;SDS011;60354;47.798;12.472;2023-12-20T05:03:29;1.90;;;1.20;;
72379;SDS011;60354;47.798;12.472;2023-12-20T05:05:55;1.48;;;1.00;;
72379;SDS011;60354;47.798;12.472;2023-12-20T05:08:20;2.97;;;1.25;;
72379;SDS011;60354;47.798;12.472;2023-12-20T05:10:46;2.58;;;1.25;;
72379;SDS011;60354;47.798;12.472;2023-12-20T05:13:11;2.00;;;1.15;;
72379;SDS011;60354;47.798;12.472;2023-12-20T05:15:37;1.98;;;1.10;;
72379;SDS011;60354;47.798;12.472;2023-12-20T05:18:02;2.13;;;1.00;;
72379;SDS011;60354;47.798;12.472;2023-12-20T05:20:28;1.17;;;0.80;;
72379;SDS011;60354;47.798;12.472;2023-12-20T05:22:53;1.65;;;0.95;;
72379;SDS011;60354;47.798;12.472;2023-12-20T05:25:19;1.80;;;1.10;;
72379;SDS011;60354;47.798;12.472;2023-12-20T05:27:44;1.90;;;1.10;;
72379;SDS011;60354;47.798;12.472;2023-12-20T05:30:10;1.70;;;1.10;;
72379;SDS011;60354;47.798;12.472;2023-12-20T05:32:36;1.73;;;1.10;;
72379;SDS011;60354;47.798;12.472;2023-12-20T05:35:01;1.58;;;1.00;;
72379;SDS011;60354;47.798;12.472;2023-12-20T05:37:28;2.03;;;1.20;;
72379;SDS011;60354;47.798;12.472;2023-12-20T05:39:53;1.40;;;0.98;;
72379;SDS011;60354;47.798;12.472;2023-12-20T05:42:19;1.25;;;0.90;;
72379;SDS011;60354;47.798;12.472;2023-12-20T05:44:44;1.08;;;0.80;;
72379;SDS011;60354;47.798;12.472;2023-12-20T05:47:10;0.80;;;0.70;;
72379;SDS011;60354;47.798;12.472;2023-12-20T05:49:35;0.90;;;0.70;;
72379;SDS011;60354;47.798;12.472;2023-12-20T05:52:01;1.20;;;1.00;;
72379;SDS011;60354;47.798;12.472;2023-12-20T05:54:26;1.73;;;0.98;;
72379;SDS011;60354;47.798;12.472;2023-12-20T05:56:52;0.90;;;0.80;;
72379;SDS011;60354;47.798;12.472;2023-12-20T05:59:17;1.02;;;0.55;;
72379;SDS011;60354;47.798;12.472;2023-12-20T06:01:43;1.30;;;0.80;;
72379;SDS011;60354;47.798;12.472;2023-12-20T06:04:08;1.75;;;0.73;;
72379;SDS011;60354;47.798;12.472;2023-12-20T06:06:34;1.50;;;0.80;;
72379;SDS011;60354;47.798;12.472;2023-12-20T06:08:59;1.55;;;0.75;;
72379;SDS011;60354;47.798;12.472;2023-12-20T06:11:25;0.98;;;0.63;;
72379;SDS011;60354;47.798;12.472;2023-12-20T06:13:51;1.35;;;0.80;;
72379;SDS011;60354;47.798;12.472;2023-12-20T06:16:18;1.35;;;0.80;;
72379;SDS011;60354;47.798;12.472;2023-12-20T06:18:43;1.75;;;0.90;;
72379;SDS011;60354;47.798;12.472;2023-12-20T06:21:09;1.75;;;0.90;;
72379;SDS011;60354;47.798;12.472;2023-12-20T06:23:38;2.67;;;1.15;;
72379;SDS011;60354;47.798;12.472;2023-12-20T06:26:03;3.45;;;1.30;;
72379;SDS011;60354;47.798;12.472;2023-12-20T06:28:29;1.77;;;1.20;;
72379;SDS011;60354;47.798;12.472;2023-12-20T06:30:54;2.95;;;1.00;;
72379;SDS011;60354;47.798;12.472;2023-12-20T06:33:20;1.80;;;1.20;;
72379;SDS011;60354;47.798;12.472;2023-12-20T06:35:47;2.17;;;1.30;;
72379;SDS011;60354;47.798;12.472;2023-12-20T06:38:12;2.28;;;1.35;;
72379;SDS011;60354;47.798;12.472;2023-12-20T06:40:38;1.85;;;1.23;;
72379;SDS011;60354;47.798;12.472;2023-12-20T06:43:03;2.08;;;1.05;;
72379;SDS011;60354;47.798;12.472;2023-12-20T06:45:29;2.08;;;1.10;;
72379;SDS011;60354;47.798;12.472;2023-12-20T06:47:54;1.67;;;1.10;;
72379;SDS011;60354;47.798;12.472;2023-12-20T06:50:20;2.95;;;1.23;;
72379;SDS011;60354;47.798;12.472;2023-12-20T06:52:46;2.50;;;1.45;;
72379;SDS011;60354;47.798;12.472;2023-12-20T06:55:11;1.75;;;1.10;;
72379;SDS011;60354;47.798;12.472;2023-12-20T06:57:36;2.38;;;1.23;;
72379;SDS011;60354;47.798;12.472;2023-12-20T07:00:02;2.13;;;1.40;;
72379;SDS011;60354;47.798;12.472;2023-12-20T07:02:29;2.05;;;1.02;;
72379;SDS011;60354;47.798;12.472;2023-12-20T07:04:55;2.35;;;1.30;;
72379;SDS011;60354;47.798;12.472;2023-12-20T07:07:21;1.52;;;1.00;;
72379;SDS011;60354;47.798;12.472;2023-12-20T07:09:48;1.00;;;0.90;;
72379;SDS011;60354;47.798;12.472;2023-12-20T07:12:14;2.17;;;1.30;;
72379;SDS011;60354;47.798;12.472;2023-12-20T07:14:39;1.70;;;1.25;;
72379;SDS011;60354;47.798;12.472;2023-12-20T07:17:04;1.15;;;1.00;;
72379;SDS011;60354;47.798;12.472;2023-12-20T07:19:32;2.00;;;1.20;;
72379;SDS011;60354;47.798;12.472;2023-12-20T07:21:57;1.42;;;1.10;;
72379;SDS011;60354;47.798;12.472;2023-12-20T07:24:23;1.10;;;0.90;;
72379;SDS011;60354;47.798;12.472;2023-12-20T07:26:48;1.58;;;0.98;;
72379;SDS011;60354;47.798;12.472;2023-12-20T07:29:14;1.65;;;1.10;;
72379;SDS011;60354;47.798;12.472;2023-12-20T07:31:39;1.65;;;0.80;;
72379;SDS011;60354;47.798;12.472;2023-12-20T07:34:05;1.23;;;0.80;;
72379;SDS011;60354;47.798;12.472;2023-12-20T07:36:30;0.95;;;0.70;;
72379;SDS011;60354;47.798;12.472;2023-12-20T07:38:56;0.77;;;0.65;;
72379;SDS011;60354;47.798;12.472;2023-12-20T07:41:21;0.82;;;0.60;;
72379;SDS011;60354;47.798;12.472;2023-12-20T07:43:48;0.50;;;0.50;;
72379;SDS011;60354;47.798;12.472;2023-12-20T07:46:14;2.22;;;0.50;;
72379;SDS011;60354;47.798;12.472;2023-12-20T07:48:40;0.80;;;0.70;;
72379;SDS011;60354;47.798;12.472;2023-12-20T07:51:06;0.85;;;0.60;;
72379;SDS011;60354;47.798;12.472;2023-12-20T07:53:33;0.60;;;0.60;;
72379;SDS011;60354;47.798;12.472;2023-12-20T07:56:00;0.50;;;0.50;;
72379;SDS011;60354;47.798;12.472;2023-12-20T07:58:25;1.77;;;0.70;;
72379;SDS011;60354;47.798;12.472;2023-12-20T08:00:51;0.75;;;0.60;;
72379;SDS011;60354;47.798;12.472;2023-12-20T08:03:16;1.52;;;0.80;;
72379;SDS011;60354;47.798;12.472;2023-12-20T08:05:41;0.88;;;0.70;;
72379;SDS011;60354;47.798;12.472;2023-12-20T08:08:07;0.93;;;0.70;;
72379;SDS011;60354;47.798;12.472;2023-12-20T08:10:33;0.75;;;0.70;;
72379;SDS011;60354;47.798;12.472;2023-12-20T08:12:58;1.20;;;0.75;;
72379;SDS011;60354;47.798;12.472;2023-12-20T08:15:24;1.67;;;0.80;;
72379;SDS011;60354;47.798;12.472;2023-12-20T08:17:49;1.27;;;0.80;;
72379;SDS011;60354;47.798;12.472;2023-12-20T08:20:18;1.33;;;0.90;;
72379;SDS011;60354;47.798;12.472;2023-12-20T08:22:43;0.90;;;0.75;;
72379;SDS011;60354;47.798;12.472;2023-12-20T08:25:09;1.40;;;0.88;;
72379;SDS011;60354;47.798;12.472;2023-12-20T08:27:40;1.23;;;0.80;;
72379;SDS011;60354;47.798;12.472;2023-12-20T08:30:07;1.00;;;0.75;;
72379;SDS011;60354;47.798;12.472;2023-12-20T08:32:34;1.60;;;0.80;;
72379;SDS011;60354;47.798;12.472;2023-12-20T08:35:00;1.02;;;0.80;;
72379;SDS011;60354;47.798;12.472;2023-12-20T08:37:25;1.40;;;0.90;;
72379;SDS011;60354;47.798;12.472;2023-12-20T08:39:50;1.00;;;0.80;;
72379;SDS011;60354;47.798;12.472;2023-12-20T08:42:16;0.65;;;0.63;;
72379;SDS011;60354;47.798;12.472;2023-12-20T08:44:41;1.30;;;0.90;;
72379;SDS011;60354;47.798;12.472;2023-12-20T08:47:07;2.00;;;0.77;;
72379;SDS011;60354;47.798;12.472;2023-12-20T08:49:32;0.73;;;0.60;;
72379;SDS011;60354;47.798;12.472;2023-12-20T08:51:58;0.50;;;0.50;;
72379;SDS011;60354;47.798;12.472;2023-12-20T08:54:23;0.68;;;0.57;;
72379;SDS011;60354;47.798;12.472;2023-12-20T08:56:49;2.65;;;0.47;;
72379;SDS011;60354;47.798;12.472;2023-12-20T08:59:15;0.98;;;0.60;;
72379;SDS011;60354;47.798;12.472;2023-12-20T09:01:40;0.50;;;0.40;;
72379;SDS011;60354;47.798;12.472;2023-12-20T09:04:06;1.40;;;0.60;;
72379;SDS011;60354;47.798;12.472;2023-12-20T09:06:31;1.08;;;0.70;;
72379;SDS011;60354;47.798;12.472;2023-12-20T09:08:57;0.60;;;0.60;;
72379;SDS011;60354;47.798;12.472;2023-12-20T09:11:22;1.30;;;0.70;;
72379;SDS011;60354;47.798;12.472;2023-12-20T09:13:48;0.77;;;0.60;;
72379;SDS011;60354;47.798;12.472;2023-12-20T09:16:13;0.73;;;0.70;;
72379;SDS011;60354;47.798;12.472;2023-12-20T09:18:41;1.17;;;0.80;;
72379;SDS011;60354;47.798;12.472;2023-12-20T09:21:07;2.90;;;0.80;;
72379;SDS011;60354;47.798;12.472;2023-12-20T09:23:32;2.30;;;0.98;;
72379;SDS011;60354;47.798;12.472;2023-12-20T09:25:58;8.85;;;3.22;;
72379;SDS011;60354;47.798;12.472;2023-12-20T09:28:23;1.30;;;0.80;;
72379;SDS011;60354;47.798;12.472;2023-12-20T09:30:49;0.95;;;0.70;;
72379;SDS011;60354;47.798;12.472;2023-12-20T09:33:14;2.00;;;0.90;;
72379;SDS011;60354;47.798;12.472;2023-12-20T09:35:41;1.67;;;1.05;;
72379;SDS011;60354;47.798;12.472;2023-12-20T09:38:07;4.40;;;1.70;;
72379;SDS011;60354;47.798;12.472;2023-12-20T09:40:33;1.23;;;0.75;;
72379;SDS011;60354;47.798;12.472;2023-12-20T09:43:03;1.33;;;0.80;;
72379;SDS011;60354;47.798;12.472;2023-12-20T09:45:30;1.70;;;0.85;;
72379;SDS011;60354;47.798;12.472;2023-12-20T09:47:57;0.93;;;0.68;;
72379;SDS011;60354;47.798;12.472;2023-12-20T09:50:23;0.80;;;0.55;;
72379;SDS011;60354;47.798;12.472;2023-12-20T09:52:52;0.90;;;0.63;;
72379;SDS011;60354;47.798;12.472;2023-12-20T09:55:18;1.63;;;0.90;;
72379;SDS011;60354;47.798;12.472;2023-12-20T09:57:45;2.55;;;0.80;;
72379;SDS011;60354;47.798;12.472;2023-12-20T10:00:12;1.70;;;0.80;;
72379;SDS011;60354;47.798;12.472;2023-12-20T10:02:39;0.75;;;0.50;;
72379;SDS011;60354;47.798;12.472;2023-12-20T10:05:10;0.80;;;0.70;;
72379;SDS011;60354;47.798;12.472;2023-12-20T10:07:41;1.55;;;1.00;;
72379;SDS011;60354;47.798;12.472;2023-12-20T10:10:07;0.75;;;0.40;;
72379;SDS011;60354;47.798;12.472;2023-12-20T10:12:34;0.73;;;0.52;;
72379;SDS011;60354;47.798;12.472;2023-12-20T10:14:59;0.50;;;0.30;;
72379;SDS011;60354;47.798;12.472;2023-12-20T10:17:25;1.77;;;0.90;;
72379;SDS011;60354;47.798;12.472;2023-12-20T10:19:54;0.30;;;0.30;;
72379;SDS011;60354;47.798;12.472;2023-12-20T10:22:19;0.20;;;0.20;;
72379;SDS011;60354;47.798;12.472;2023-12-20T10:24:46;1.20;;;0.70;;
72379;SDS011;60354;47.798;12.472;2023-12-20T10:27:12;0.45;;;0.30;;
72379;SDS011;60354;47.798;12.472;2023-12-20T10:29:37;3.45;;;1.50;;
72379;SDS011;60354;47.798;12.472;2023-12-20T10:32:23;1.00;;;0.55;;
72379;SDS011;60354;47.798;12.472;2023-12-20T10:34:53;0.50;;;0.50;;
72379;SDS011;60354;47.798;12.472;2023-12-20T10:37:19;1.23;;;0.70;;
72379;SDS011;60354;47.798;12.472;2023-12-20T10:39:52;1.13;;;0.40;;
72379;SDS011;60354;47.798;12.472;2023-12-20T10:42:30;0.28;;;0.28;;
72379;SDS011;60354;47.798;12.472;2023-12-20T10:44:56;0.55;;;0.30;;
72379;SDS011;60354;47.798;12.472;2023-12-20T10:47:21;2.80;;;0.30;;
72379;SDS011;60354;47.798;12.472;2023-12-20T10:49:49;0.30;;;0.30;;
72379;SDS011;60354;47.798;12.472;2023-12-20T10:52:17;0.50;;;0.40;;
72379;SDS011;60354;47.798;12.472;2023-12-20T10:54:42;0.50;;;0.40;;
72379;SDS011;60354;47.798;12.472;2023-12-20T10:57:09;0.90;;;0.50;;
72379;SDS011;60354;47.798;12.472;2023-12-20T10:59:38;0.85;;;0.40;;
72379;SDS011;60354;47.798;12.472;2023-12-20T11:02:05;0.60;;;0.50;;
72379;SDS011;60354;47.798;12.472;2023-12-20T11:04:39;1.33;;;0.40;;
72379;SDS011;60354;47.798;12.472;2023-12-20T11:07:35;3.95;;;1.20;;
72379;SDS011;60354;47.798;12.472;2023-12-20T11:10:05;8.85;;;3.20;;
72379;SDS011;60354;47.798;12.472;2023-12-20T11:15:42;3.53;;;0.60;;
72379;SDS011;60354;47.798;12.472;2023-12-20T11:18:08;1.05;;;0.52;;
72379;SDS011;60354;47.798;12.472;2023-12-20T11:20:37;1.38;;;0.70;;
72379;SDS011;60354;47.798;12.472;2023-12-20T11:23:04;3.97;;;1.50;;
72379;SDS011;60354;47.798;12.472;2023-12-20T11:25:30;4.38;;;1.80;;
72379;SDS011;60354;47.798;12.472;2023-12-20T11:28:11;2.97;;;0.60;;
72379;SDS011;60354;47.798;12.472;2023-12-20T11:30:41;0.30;;;0.30;;
72379;SDS011;60354;47.798;12.472;2023-12-20T11:33:14;0.40;;;0.38;;
72379;SDS011;60354;47.798;12.472;2023-12-20T11:35:41;2.22;;;1.00;;
72379;SDS011;60354;47.798;12.472;2023-12-20T11:38:07;0.80;;;0.52;;
72379;SDS011;60354;47.798;12.472;2023-12-20T11:40:34;3.50;;;1.30;;
72379;SDS011;60354;47.798;12.472;2023-12-20T11:43:00;1.05;;;0.70;;
72379;SDS011;60354;47.798;12.472;2023-12-20T11:45:26;0.65;;;0.40;;
72379;SDS011;60354;47.798;12.472;2023-12-20T11:47:52;2.00;;;1.10;;
72379;SDS011;60354;47.798;12.472;2023-12-20T11:50:21;0.52;;;0.50;;
72379;SDS011;60354;47.798;12.472;2023-12-20T11:52:48;2.85;;;1.40;;
72379;SDS011;60354;47.798;12.472;2023-12-20T11:55:14;2.10;;;1.30;;
72379;SDS011;60354;47.798;12.472;2023-12-20T11:57:41;3.47;;;1.52;;
72379;SDS011;60354;47.798;12.472;2023-12-20T12:00:08;3.25;;;1.23;;
72379;SDS011;60354;47.798;12.472;2023-12-20T12:02:42;3.17;;;1.55;;
72379;SDS011;60354;47.798;12.472;2023-12-20T12:05:08;1.63;;;0.90;;
72379;SDS011;60354;47.798;12.472;2023-12-20T12:07:34;1.25;;;0.75;;
72379;SDS011;60354;47.798;12.472;2023-12-20T12:10:00;0.60;;;0.50;;
72379;SDS011;60354;47.798;12.472;2023-12-20T12:12:25;1.77;;;0.60;;
72379;SDS011;60354;47.798;12.472;2023-12-20T12:14:52;1.48;;;0.88;;
72379;SDS011;60354;47.798;12.472;2023-12-20T12:17:18;3.33;;;1.30;;
72379;SDS011;60354;47.798;12.472;2023-12-20T12:19:44;1.13;;;0.70;;
72379;SDS011;60354;47.798;12.472;2023-12-20T12:22:10;0.70;;;0.60;;
72379;SDS011;60354;47.798;12.472;2023-12-20T12:24:42;0.77;;;0.65;;
72379;SDS011;60354;47.798;12.472;2023-12-20T12:27:09;0.80;;;0.60;;
72379;SDS011;60354;47.798;12.472;2023-12-20T12:29:36;0.90;;;0.60;;
72379;SDS011;60354;47.798;12.472;2023-12-20T12:32:05;0.70;;;0.60;;
72379;SDS011;60354;47.798;12.472;2023-12-20T12:34:32;0.43;;;0.38;;
72379;SDS011;60354;47.798;12.472;2023-12-20T12:37:01;0.95;;;0.50;;
72379;SDS011;60354;47.798;12.472;2023-12-20T12:39:28;0.50;;;0.40;;
72379;SDS011;60354;47.798;12.472;2023-12-20T12:41:55;1.55;;;0.88;;
72379;SDS011;60354;47.798;12.472;2023-12-20T12:44:21;1.27;;;0.63;;
72379;SDS011;60354;47.798;12.472;2023-12-20T12:46:48;0.65;;;0.50;;
72379;SDS011;60354;47.798;12.472;2023-12-20T12:49:21;1.73;;;1.02;;
72379;SDS011;60354;47.798;12.472;2023-12-20T12:51:47;0.50;;;0.50;;
72379;SDS011;60354;47.798;12.472;2023-12-20T12:54:13;1.25;;;0.73;;
72379;SDS011;60354;47.798;12.472;2023-12-20T12:56:40;0.60;;;0.50;;
72379;SDS011;60354;47.798;12.472;2023-12-20T12:59:06;0.68;;;0.60;;
72379;SDS011;60354;47.798;12.472;2023-12-20T13:01:31;1.00;;;0.77;;
72379;SDS011;60354;47.798;12.472;2023-12-20T13:03:57;1.65;;;0.95;;
72379;SDS011;60354;47.798;12.472;2023-12-20T13:06:22;0.77;;;0.60;;
72379;SDS011;60354;47.798;12.472;2023-12-20T13:08:48;0.93;;;0.45;;
72379;SDS011;60354;47.798;12.472;2023-12-20T13:11:14;0.50;;;0.30;;
72379;SDS011;60354;47.798;12.472;2023-12-20T13:13:40;0.70;;;0.50;;
72379;SDS011;60354;47.798;12.472;2023-12-20T13:16:05;0.93;;;0.60;;
72379;SDS011;60354;47.798;12.472;2023-12-20T13:18:31;0.30;;;0.30;;
72379;SDS011;60354;47.798;12.472;2023-12-20T13:20:57;0.32;;;0.32;;
72379;SDS011;60354;47.798;12.472;2023-12-20T13:23:22;0.40;;;0.38;;
72379;SDS011;60354;47.798;12.472;2023-12-20T13:25:48;0.30;;;0.30;;
72379;SDS011;60354;47.798;12.472;2023-12-20T13:28:13;0.40;;;0.40;;
72379;SDS011;60354;47.798;12.472;2023-12-20T13:30:39;0.70;;;0.50;;
72379;SDS011;60354;47.798;12.472;2023-12-20T13:33:05;0.43;;;0.40;;
72379;SDS011;60354;47.798;12.472;2023-12-20T13:35:31;0.40;;;0.40;;
72379;SDS011;60354;47.798;12.472;2023-12-20T13:37:57;0.40;;;0.40;;
72379;SDS011;60354;47.798;12.472;2023-12-20T13:40:23;0.40;;;0.38;;
72379;SDS011;60354;47.798;12.472;2023-12-20T13:42:49;0.20;;;0.20;;
72379;SDS011;60354;47.798;12.472;2023-12-20T13:45:15;0.30;;;0.30;;
72379;SDS011;60354;47.798;12.472;2023-12-20T13:47:41;0.30;;;0.30;;
72379;SDS011;60354;47.798;12.472;2023-12-20T13:50:06;0.85;;;0.50;;
72379;SDS011;60354;47.798;12.472;2023-12-20T13:52:32;0.65;;;0.65;;
72379;SDS011;60354;47.798;12.472;2023-12-20T13:54:58;0.82;;;0.60;;
72379;SDS011;60354;47.798;12.472;2023-12-20T13:57:23;0.40;;;0.40;;
72379;SDS011;60354;47.798;12.472;2023-12-20T13:59:48;0.50;;;0.47;;
72379;SDS011;60354;47.798;12.472;2023-12-20T14:02:14;0.65;;;0.65;;
72379;SDS011;60354;47.798;12.472;2023-12-20T14:04:41;1.45;;;0.60;;
72379;SDS011;60354;47.798;12.472;2023-12-20T14:07:07;0.52;;;0.50;;
72379;SDS011;60354;47.798;12.472;2023-12-20T14:09:33;0.70;;;0.60;;
72379;SDS011;60354;47.798;12.472;2023-12-20T14:11:59;1.63;;;0.70;;
72379;SDS011;60354;47.798;12.472;2023-12-20T14:14:25;2.70;;;0.75;;
72379;SDS011;60354;47.798;12.472;2023-12-20T14:16:50;1.13;;;0.75;;
72379;SDS011;60354;47.798;12.472;2023-12-20T14:19:16;1.40;;;0.90;;
72379;SDS011;60354;47.798;12.472;2023-12-20T14:21:42;0.80;;;0.50;;
72379;SDS011;60354;47.798;12.472;2023-12-20T14:24:07;4.00;;;2.20;;
72379;SDS011;60354;47.798;12.472;2023-12-20T14:26:33;0.65;;;0.60;;
72379;SDS011;60354;47.798;12.472;2023-12-20T14:28:58;0.75;;;0.60;;
72379;SDS011;60354;47.798;12.472;2023-12-20T14:31:23;1.20;;;0.70;;